createdAt,value
2018-07-07T00:02:00.483Z,99.90
2018-07-07T00:04:28.398Z,99.90
2018-07-07T00:06:56.259Z,99.90
2018-07-07T00:09:24.162Z,99.90
2018-07-07T00:11:52.008Z,99.90
2018-07-07T00:14:19.818Z,99.90
2018-07-07T00:16:47.574Z,99.90
2018-07-07T00:21:43.047Z,99.90
2018-07-07T00:24:10.829Z,99.90
2018-07-07T00:26:38.574Z,99.90
2018-07-07T00:29:06.375Z,99.90
2018-07-07T00:31:34.153Z,99.90
2018-07-07T00:34:01.865Z,99.90
2018-07-07T00:36:29.777Z,99.90
2018-07-07T00:38:57.497Z,99.90
2018-07-07T00:41:25.334Z,99.90
2018-07-07T00:43:53.219Z,99.90
2018-07-07T00:46:21.000Z,99.90
2018-07-07T00:48:48.796Z,99.90
2018-07-07T00:51:16.566Z,99.90
2018-07-07T00:53:44.330Z,99.90
2018-07-07T00:56:12.081Z,99.90
2018-07-07T00:58:39.907Z,99.90
2018-07-07T01:01:07.674Z,99.90
2018-07-07T01:03:36.090Z,99.90
2018-07-07T01:06:03.876Z,99.90
2018-07-07T01:10:59.869Z,99.90
2018-07-07T01:13:27.975Z,99.90
2018-07-07T01:15:55.644Z,99.90
2018-07-07T01:20:51.000Z,99.90
2018-07-07T01:23:18.707Z,99.90
2018-07-07T01:25:46.760Z,99.90
2018-07-07T01:28:14.611Z,99.90
2018-07-07T01:30:42.334Z,99.90
2018-07-07T01:33:10.105Z,99.90
2018-07-07T01:38:05.586Z,99.90
2018-07-07T01:40:33.383Z,99.90
2018-07-07T01:45:28.806Z,99.90
2018-07-07T01:50:24.268Z,99.90
2018-07-07T01:52:52.151Z,99.90
2018-07-07T01:55:19.871Z,99.90
2018-07-07T01:57:47.620Z,99.90
2018-07-07T02:00:15.554Z,99.90
2018-07-07T02:02:43.370Z,99.90
2018-07-07T02:05:11.205Z,99.90
2018-07-07T02:07:38.933Z,99.90
2018-07-07T02:10:06.809Z,99.90
2018-07-07T02:12:34.618Z,99.90
2018-07-07T02:17:30.267Z,99.90
2018-07-07T02:19:58.055Z,99.90
2018-07-07T02:22:25.842Z,99.90
2018-07-07T02:24:53.726Z,99.90
2018-07-07T02:27:23.166Z,99.90
2018-07-07T02:32:19.035Z,99.90
2018-07-07T02:34:47.243Z,99.90
2018-07-07T02:37:15.035Z,99.90
2018-07-07T02:39:42.960Z,99.90
2018-07-07T02:42:10.907Z,99.90
2018-07-07T02:44:38.734Z,99.90
2018-07-07T02:47:06.481Z,99.90
2018-07-07T02:49:34.579Z,99.90
2018-07-07T02:52:02.366Z,99.90
2018-07-07T02:54:30.343Z,99.90
2018-07-07T02:56:58.348Z,99.90
2018-07-07T02:59:26.450Z,99.90
2018-07-07T03:06:49.638Z,99.90
2018-07-07T03:09:17.605Z,99.90
2018-07-07T03:19:08.548Z,99.90
2018-07-07T03:21:36.263Z,99.90
2018-07-07T03:24:04.071Z,99.90
2018-07-07T03:26:31.918Z,99.90
2018-07-07T03:28:59.698Z,99.90
2018-07-07T03:31:27.458Z,99.90
2018-07-07T03:33:55.322Z,99.90
2018-07-07T03:41:18.469Z,99.90
2018-07-07T03:43:46.261Z,99.90
2018-07-07T03:46:14.015Z,99.90
2018-07-07T03:48:42.015Z,99.90
2018-07-07T03:51:09.934Z,99.90
2018-07-07T03:53:37.741Z,99.90
2018-07-07T03:58:33.372Z,99.90
2018-07-07T04:01:01.158Z,99.90
2018-07-07T04:03:28.915Z,99.90
2018-07-07T04:08:24.468Z,99.90
2018-07-07T04:10:52.225Z,99.90
2018-07-07T04:13:19.963Z,99.90
2018-07-07T04:15:47.891Z,99.90
2018-07-07T04:18:20.198Z,99.90
2018-07-07T04:23:15.742Z,99.90
2018-07-07T04:30:38.921Z,99.90
2018-07-07T04:33:06.671Z,99.90
2018-07-07T04:35:34.490Z,99.90
2018-07-07T04:38:02.250Z,99.90
2018-07-07T04:40:30.173Z,99.90
2018-07-07T04:42:57.878Z,99.90
2018-07-07T04:45:25.642Z,99.90
2018-07-07T04:47:53.426Z,99.90
2018-07-07T04:50:21.478Z,99.90
2018-07-07T04:52:49.225Z,99.90
2018-07-07T04:55:16.948Z,99.90
2018-07-07T04:57:44.927Z,99.90
2018-07-07T05:00:13.058Z,99.90
2018-07-07T05:02:40.915Z,99.90
2018-07-07T05:05:08.716Z,99.90
2018-07-07T05:07:36.494Z,99.90
2018-07-07T05:12:32.015Z,99.90
2018-07-07T05:14:59.733Z,99.90
2018-07-07T05:17:27.557Z,99.90
2018-07-07T05:22:23.030Z,99.90
2018-07-07T05:24:50.853Z,99.90
2018-07-07T05:29:46.254Z,99.90
2018-07-07T05:32:14.157Z,99.90
2018-07-07T05:34:41.972Z,99.90
2018-07-07T05:37:09.802Z,99.90
2018-07-07T05:39:37.576Z,99.90
2018-07-07T05:42:05.389Z,99.90
2018-07-07T05:44:33.166Z,99.90
2018-07-07T05:49:28.675Z,99.90
2018-07-07T05:51:56.458Z,99.90
2018-07-07T06:01:47.511Z,99.90
2018-07-07T06:04:15.319Z,99.90
2018-07-07T06:06:43.062Z,99.90
2018-07-07T06:09:10.840Z,99.90
2018-07-07T06:11:38.606Z,99.90
2018-07-07T06:14:06.366Z,99.90
2018-07-07T06:16:34.185Z,99.90
2018-07-07T06:19:02.012Z,99.90
2018-07-07T06:21:29.807Z,99.90
2018-07-07T06:23:57.814Z,99.90
2018-07-07T06:26:25.609Z,99.90
2018-07-07T06:28:53.401Z,99.90
2018-07-07T06:31:21.222Z,99.90
2018-07-07T06:33:48.947Z,99.90
2018-07-07T06:36:17.314Z,99.90
2018-07-07T06:38:45.072Z,99.90
2018-07-07T06:41:12.848Z,99.90
2018-07-07T06:43:40.661Z,99.90
2018-07-07T06:46:08.474Z,99.90
2018-07-07T06:48:36.221Z,99.90
2018-07-07T06:51:03.986Z,99.90
2018-07-07T06:53:31.814Z,99.90
2018-07-07T06:55:59.547Z,99.90
2018-07-07T06:58:27.382Z,99.90
2018-07-07T07:00:55.199Z,99.90
2018-07-07T07:03:22.973Z,99.90
2018-07-07T07:05:50.751Z,99.90
2018-07-07T07:08:18.498Z,99.90
2018-07-07T07:10:46.259Z,99.90
2018-07-07T07:13:14.042Z,99.90
2018-07-07T07:15:41.807Z,99.90
2018-07-07T07:18:09.617Z,99.90
2018-07-07T07:23:05.229Z,99.90
2018-07-07T07:25:32.994Z,99.90
2018-07-07T07:28:00.721Z,99.90
2018-07-07T07:30:28.529Z,99.90
2018-07-07T07:35:24.000Z,99.90
2018-07-07T07:37:52.227Z,99.90
2018-07-07T07:40:19.954Z,99.90
2018-07-07T07:42:47.711Z,99.90
2018-07-07T07:45:15.422Z,99.90
2018-07-07T07:47:43.215Z,99.90
2018-07-07T07:50:10.951Z,99.90
2018-07-07T07:55:06.520Z,99.90
2018-07-07T07:57:34.334Z,99.90
2018-07-07T08:00:02.104Z,99.90
2018-07-07T08:02:30.010Z,99.90
2018-07-07T08:04:58.916Z,99.90
2018-07-07T08:07:27.150Z,99.90
2018-07-07T08:12:22.898Z,99.90
2018-07-07T08:14:50.998Z,99.90
2018-07-07T08:17:18.797Z,99.90
2018-07-07T08:19:46.520Z,99.90
2018-07-07T08:22:14.291Z,99.90
2018-07-07T08:24:42.037Z,99.90
2018-07-07T08:27:09.969Z,99.90
2018-07-07T08:29:37.741Z,99.90
2018-07-07T08:32:05.563Z,99.90
2018-07-07T08:34:33.464Z,99.90
2018-07-07T08:39:28.849Z,99.90
2018-07-07T08:41:56.839Z,99.90
2018-07-07T08:46:52.310Z,99.90
2018-07-07T08:49:20.153Z,99.90
2018-07-07T08:51:47.864Z,99.90
2018-07-07T08:54:15.785Z,99.90
2018-07-07T09:01:38.957Z,99.90
2018-07-07T09:04:06.785Z,99.90
2018-07-07T09:06:34.540Z,99.90
2018-07-07T09:09:02.415Z,99.90
2018-07-07T09:11:30.214Z,99.90
2018-07-07T09:13:57.927Z,99.90
2018-07-07T09:16:25.685Z,99.90
2018-07-07T09:18:53.503Z,99.90
2018-07-07T09:21:21.276Z,99.90
2018-07-07T09:23:49.025Z,99.90
2018-07-07T09:26:17.671Z,99.90
2018-07-07T09:28:45.435Z,99.90
2018-07-07T09:31:13.209Z,99.90
2018-07-07T09:33:40.918Z,99.90
2018-07-07T09:36:08.728Z,99.90
2018-07-07T09:38:36.489Z,99.90
2018-07-07T09:41:04.303Z,99.90
2018-07-07T09:43:32.074Z,99.90
2018-07-07T09:45:59.787Z,99.90
2018-07-07T09:48:27.715Z,99.90
2018-07-07T09:50:56.557Z,99.90
2018-07-07T09:53:24.280Z,99.90
2018-07-07T09:55:52.057Z,99.90
2018-07-07T09:58:19.821Z,99.90
2018-07-07T10:00:47.655Z,99.90
2018-07-07T10:03:15.376Z,99.90
2018-07-07T10:05:43.171Z,99.90
2018-07-07T10:08:10.915Z,99.90
2018-07-07T10:10:38.763Z,99.90
2018-07-07T10:13:06.741Z,99.90
2018-07-07T10:15:34.747Z,99.90
2018-07-07T10:22:58.111Z,99.90
2018-07-07T10:25:25.952Z,99.90
2018-07-07T10:27:53.701Z,99.90
2018-07-07T10:30:21.478Z,99.90
2018-07-07T10:32:49.193Z,99.90
2018-07-07T10:37:44.715Z,99.90
2018-07-07T10:40:12.470Z,99.90
2018-07-07T10:42:40.246Z,99.90
2018-07-07T10:45:08.448Z,99.90
2018-07-07T10:47:36.183Z,99.90
2018-07-07T10:50:03.997Z,99.90
2018-07-07T10:52:31.715Z,99.90
2018-07-07T10:57:27.175Z,99.90
2018-07-07T10:59:55.181Z,99.90
2018-07-07T11:02:22.980Z,99.90
2018-07-07T11:07:18.442Z,99.90
2018-07-07T11:09:46.340Z,99.90
2018-07-07T11:12:14.154Z,99.90
2018-07-07T11:14:41.889Z,99.90
2018-07-07T11:17:09.701Z,99.90
2018-07-07T11:19:37.474Z,99.90
2018-07-07T11:22:05.629Z,99.90
2018-07-07T11:24:33.423Z,99.90
2018-07-07T11:27:01.297Z,99.90
2018-07-07T11:29:29.237Z,99.90
2018-07-07T11:31:56.958Z,99.90
2018-07-07T11:36:52.461Z,99.90
2018-07-07T11:39:20.302Z,99.90
2018-07-07T11:41:48.086Z,99.90
2018-07-07T11:44:15.990Z,99.90
2018-07-07T11:49:11.453Z,99.90
2018-07-07T11:51:39.254Z,99.90
2018-07-07T11:54:07.023Z,99.90
2018-07-07T11:56:34.843Z,99.90
2018-07-07T11:59:03.202Z,99.90
2018-07-07T12:01:30.983Z,99.90
2018-07-07T12:03:58.800Z,99.90
2018-07-07T12:08:54.454Z,99.90
2018-07-07T12:11:22.305Z,99.90
2018-07-07T12:13:50.011Z,99.90
2018-07-07T12:16:17.837Z,99.90
2018-07-07T12:18:45.633Z,99.90
2018-07-07T12:21:13.454Z,99.90
2018-07-07T12:23:41.314Z,99.90
2018-07-07T12:26:09.098Z,99.90
2018-07-07T12:28:36.842Z,99.90
2018-07-07T12:31:04.653Z,99.90
2018-07-07T12:33:32.386Z,99.90
2018-07-07T12:38:27.965Z,99.90
2018-07-07T12:40:55.754Z,99.90
2018-07-07T12:43:23.563Z,99.90
2018-07-07T12:45:51.295Z,99.90
2018-07-07T12:48:19.117Z,99.90
2018-07-07T12:50:51.598Z,99.90
2018-07-07T12:53:19.397Z,99.90
2018-07-07T12:55:47.162Z,99.90
2018-07-07T12:58:14.932Z,99.90
2018-07-07T13:00:42.700Z,99.90
2018-07-07T13:03:10.566Z,99.90
2018-07-07T13:08:05.937Z,99.90
2018-07-07T13:10:33.768Z,99.90
2018-07-07T13:13:01.511Z,99.90
2018-07-07T13:15:29.326Z,99.90
2018-07-07T13:17:57.062Z,99.90
2018-07-07T13:20:24.842Z,99.90
2018-07-07T13:22:52.557Z,99.90
2018-07-07T13:25:20.321Z,99.80
2018-07-07T13:27:48.035Z,99.80
2018-07-07T13:30:15.802Z,99.90
2018-07-07T13:32:43.571Z,99.30
2018-07-07T13:35:11.292Z,99.90
2018-07-07T13:37:39.086Z,99.90
2018-07-07T13:40:06.925Z,99.70
2018-07-07T13:42:34.782Z,99.60
2018-07-07T13:45:02.823Z,99.90
2018-07-07T13:47:30.658Z,99.30
2018-07-07T13:49:58.467Z,99.60
2018-07-07T13:52:26.186Z,99.90
2018-07-07T13:54:53.946Z,99.20
2018-07-07T13:57:21.710Z,99.20
2018-07-07T13:59:49.489Z,99.40
2018-07-07T14:02:17.563Z,99.30
2018-07-07T14:04:45.465Z,99.50
2018-07-07T14:07:13.259Z,99.70
2018-07-07T14:09:41.091Z,99.90
2018-07-07T14:12:08.852Z,99.50
2018-07-07T14:14:36.567Z,99.90
2018-07-07T14:17:04.621Z,99.20
2018-07-07T14:19:32.354Z,99.30
2018-07-07T14:22:00.177Z,99.00
2018-07-07T14:24:28.034Z,98.70
2018-07-07T14:26:55.746Z,98.60
2018-07-07T14:31:51.336Z,98.70
2018-07-07T14:34:19.094Z,97.10
2018-07-07T14:36:46.819Z,97.60
2018-07-07T14:41:42.339Z,97.70
2018-07-07T14:44:10.143Z,97.90
2018-07-07T14:46:37.916Z,96.90
2018-07-07T14:49:05.690Z,96.40
2018-07-07T14:51:33.482Z,96.70
2018-07-07T14:54:01.226Z,96.10
2018-07-07T14:56:29.037Z,96.30
2018-07-07T15:01:24.469Z,95.70
2018-07-07T15:03:52.252Z,95.90
2018-07-07T15:06:19.989Z,95.20
2018-07-07T15:08:47.785Z,95.50
2018-07-07T15:11:15.541Z,95.10
2018-07-07T15:13:43.346Z,94.30
2018-07-07T15:16:11.117Z,94.80
2018-07-07T15:18:40.264Z,94.50
2018-07-07T15:21:07.975Z,93.30
2018-07-07T15:23:35.827Z,92.80
2018-07-07T15:26:03.656Z,92.40
2018-07-07T15:28:31.539Z,91.20
2018-07-07T15:30:59.286Z,90.70
2018-07-07T15:33:27.108Z,90.20
2018-07-07T15:35:54.828Z,89.50
2018-07-07T15:38:22.576Z,89.00
2018-07-07T15:40:50.377Z,90.20
2018-07-07T15:43:18.108Z,89.50
2018-07-07T15:45:45.916Z,87.70
2018-07-07T15:48:13.876Z,84.80
2018-07-07T15:50:41.663Z,84.40
2018-07-07T15:53:09.402Z,83.40
2018-07-07T15:55:37.187Z,82.70
2018-07-07T15:58:05.116Z,85.50
2018-07-07T16:00:32.955Z,83.40
2018-07-07T16:03:00.727Z,81.70
2018-07-07T16:05:28.546Z,81.30
2018-07-07T16:10:23.977Z,82.20
2018-07-07T16:15:19.549Z,83.00
2018-07-07T16:17:47.309Z,83.50
2018-07-07T16:20:15.099Z,83.90
2018-07-07T16:22:42.842Z,82.70
2018-07-07T16:25:10.342Z,82.30
2018-07-07T16:27:38.105Z,80.20
2018-07-07T16:30:06.264Z,80.40
2018-07-07T16:32:33.996Z,79.00
2018-07-07T16:35:01.854Z,78.20
2018-07-07T16:37:29.618Z,79.50
2018-07-07T16:39:57.511Z,82.80
2018-07-07T16:42:25.336Z,80.00
2018-07-07T16:44:53.157Z,81.00
2018-07-07T16:47:20.951Z,81.60
2018-07-07T16:49:48.925Z,82.70
2018-07-07T16:52:16.802Z,83.10
2018-07-07T16:54:44.618Z,82.50
2018-07-07T16:57:14.662Z,81.80
2018-07-07T16:59:42.567Z,81.30
2018-07-07T17:02:10.478Z,81.70
2018-07-07T17:04:38.242Z,83.20
2018-07-07T17:12:01.719Z,85.20
2018-07-07T17:14:29.579Z,83.60
2018-07-07T17:16:57.370Z,84.40
2018-07-07T17:19:25.628Z,82.00
2018-07-07T17:21:53.401Z,81.70
2018-07-07T17:24:21.652Z,80.30
2018-07-07T17:26:49.458Z,81.60
2018-07-07T17:29:17.311Z,82.90
2018-07-07T17:31:45.359Z,81.60
2018-07-07T17:34:13.158Z,82.90
2018-07-07T17:39:08.737Z,83.60
2018-07-07T17:41:36.855Z,82.70
2018-07-07T17:44:04.697Z,82.10
2018-07-07T17:46:32.435Z,83.30
2018-07-07T17:49:00.290Z,84.10
2018-07-07T17:51:28.811Z,84.60
2018-07-07T17:53:57.849Z,83.10
2018-07-07T17:56:25.910Z,83.00
2018-07-07T17:58:53.804Z,84.20
2018-07-07T18:01:21.621Z,85.40
2018-07-07T18:03:49.438Z,86.30
2018-07-07T18:06:17.671Z,85.70
2018-07-07T18:11:13.140Z,86.30
2018-07-07T18:13:40.863Z,87.10
2018-07-07T18:18:36.810Z,86.80
2018-07-07T18:21:04.719Z,88.00
2018-07-07T18:23:32.512Z,88.60
2018-07-07T18:26:00.279Z,88.30
2018-07-07T18:28:28.063Z,89.80
2018-07-07T18:33:23.574Z,90.00
2018-07-07T18:35:51.382Z,90.50
2018-07-07T18:38:19.244Z,90.30
2018-07-07T18:40:47.066Z,90.50
2018-07-07T18:43:14.821Z,90.60
2018-07-07T18:45:42.713Z,90.60
2018-07-07T18:50:38.174Z,90.90
2018-07-07T18:53:06.007Z,90.40
2018-07-07T18:55:33.803Z,90.40
2018-07-07T18:58:01.622Z,91.70
2018-07-07T19:02:58.982Z,92.10
2018-07-07T19:07:54.465Z,92.10
2018-07-07T19:10:22.223Z,92.60
2018-07-07T19:12:50.047Z,92.60
2018-07-07T19:15:20.916Z,92.60
2018-07-07T19:17:49.515Z,93.10
2018-07-07T19:20:22.952Z,93.50
2018-07-07T19:22:56.367Z,93.80
2018-07-07T19:27:57.791Z,94.20
2018-07-07T19:30:25.683Z,94.50
2018-07-07T19:32:59.293Z,95.60
2018-07-07T19:35:32.781Z,95.40
2018-07-07T19:38:00.593Z,95.20
2018-07-07T19:40:28.361Z,95.70
2018-07-07T19:42:56.137Z,96.00
2018-07-07T19:45:24.136Z,96.10
2018-07-07T19:50:19.787Z,97.00
2018-07-07T19:52:47.584Z,97.40
2018-07-07T19:55:15.352Z,97.40
2018-07-07T19:57:43.114Z,97.50
2018-07-07T20:00:11.313Z,97.90
2018-07-07T20:02:40.170Z,98.30
2018-07-07T20:05:07.966Z,98.70
2018-07-07T20:07:35.762Z,99.10
2018-07-07T20:12:31.141Z,99.80
2018-07-07T20:14:58.927Z,99.90
2018-07-07T20:17:38.214Z,99.90
2018-07-07T20:20:42.668Z,99.90
2018-07-07T20:23:13.877Z,99.90
2018-07-07T20:25:41.987Z,99.90
2018-07-07T20:28:15.507Z,99.90
2018-07-07T20:30:43.337Z,99.90
2018-07-07T20:33:11.081Z,99.90
2018-07-07T20:35:38.871Z,99.90
2018-07-07T20:38:06.661Z,99.90
2018-07-07T20:40:34.452Z,99.90
2018-07-07T20:45:29.985Z,99.90
2018-07-07T20:47:57.785Z,99.90
2018-07-07T20:50:25.650Z,99.90
2018-07-07T20:52:53.573Z,99.90
2018-07-07T20:57:49.040Z,99.90
2018-07-07T21:00:16.919Z,99.90
2018-07-07T21:02:44.739Z,99.90
2018-07-07T21:05:12.535Z,99.90
2018-07-07T21:07:40.351Z,99.90
2018-07-07T21:10:08.192Z,99.90
2018-07-07T21:12:35.931Z,99.90
2018-07-07T21:15:03.831Z,99.90
2018-07-07T21:17:31.646Z,99.90
2018-07-07T21:19:59.378Z,99.90
2018-07-07T21:24:54.811Z,99.90
2018-07-07T21:27:22.619Z,99.90
2018-07-07T21:29:50.414Z,99.90
2018-07-07T21:32:18.179Z,99.90
2018-07-07T21:34:46.015Z,99.90
2018-07-07T21:37:13.806Z,99.90
2018-07-07T21:39:41.650Z,99.90
2018-07-07T21:42:09.427Z,99.90
2018-07-07T21:44:37.206Z,99.90
2018-07-07T21:47:05.239Z,99.90
2018-07-07T21:49:33.017Z,99.90
2018-07-07T21:52:00.817Z,99.90
2018-07-07T21:54:28.751Z,99.90
2018-07-07T21:56:57.193Z,99.90
2018-07-07T21:59:25.152Z,99.90
2018-07-07T22:01:59.502Z,99.90
2018-07-07T22:09:42.150Z,99.90
2018-07-07T22:12:10.004Z,99.90
2018-07-07T22:14:37.774Z,99.90
2018-07-07T22:17:05.600Z,99.90
2018-07-07T22:19:33.385Z,99.90
2018-07-07T22:22:15.802Z,99.90
2018-07-07T22:24:43.886Z,99.90
2018-07-07T22:27:13.095Z,99.90
2018-07-07T22:29:40.944Z,99.90
2018-07-07T22:32:14.892Z,99.90
2018-07-07T22:37:10.426Z,99.90
2018-07-07T22:39:39.410Z,99.90
2018-07-07T22:42:08.521Z,99.90
2018-07-07T22:44:37.170Z,99.90
2018-07-07T22:47:05.058Z,99.90
2018-07-07T22:49:32.947Z,99.90
2018-07-07T22:54:28.524Z,99.90
2018-07-07T22:56:56.290Z,99.90
2018-07-07T22:59:24.357Z,99.90
2018-07-07T23:01:52.114Z,99.90
2018-07-07T23:04:19.946Z,99.90
2018-07-07T23:06:47.803Z,99.90
2018-07-07T23:09:16.752Z,99.90
2018-07-07T23:11:44.511Z,99.90
2018-07-07T23:14:12.298Z,99.90
2018-07-07T23:16:40.081Z,99.90
2018-07-07T23:19:08.158Z,99.90
2018-07-07T23:24:04.140Z,99.90
2018-07-07T23:26:32.119Z,99.90
2018-07-07T23:29:00.841Z,99.90
2018-07-07T23:31:28.658Z,99.90
2018-07-07T23:33:56.470Z,99.90
2018-07-07T23:36:24.277Z,99.90
2018-07-07T23:38:52.046Z,99.90
2018-07-07T23:41:19.826Z,99.90
2018-07-07T23:43:47.735Z,99.90
2018-07-07T23:46:15.903Z,99.90
2018-07-07T23:51:11.443Z,99.90
2018-07-07T23:56:07.953Z,99.90
2018-07-07T23:58:35.763Z,99.90
